Time;durP1;ratioP1;P1;durP2;ratioP2;P2;SDS_P1;SDS_P2;PMS_P1;PMS_P2;Temp;Humidity;BMP_temperature;BMP_pressure;BME280_temperature;BME280_humidity;BME280_pressure;Samples;Min_cycle;Max_cycle;Signal;HPM_P1;HPM_P2
2022/04/26 03:36:59;;;;;;;8.70;5.90;;;;;;;;;;5072514;28;20048;-69
2022/04/26 03:39:25;;;;;;;9.00;6.60;;;;;;;;;;5071526;28;20278;-69
2022/04/26 03:41:52;;;;;;;7.75;6.55;;;;;;;;;;5072744;28;20485;-69
2022/04/26 03:44:18;;;;;;;13.82;6.57;;;;;;;;;;5072221;28;20048;-69
2022/04/26 03:46:44;;;;;;;10.32;6.45;;;;;;;;;;5076086;28;20064;-69
2022/04/26 03:49:11;;;;;;;10.63;6.78;;;;;;;;;;5086678;28;20103;-69
2022/04/26 03:51:37;;;;;;;11.50;7.03;;;;;;;;;;5091944;28;20053;-69
2022/04/26 03:54:03;;;;;;;10.60;6.47;;;;;;;;;;5091308;28;20495;-69
2022/04/26 03:56:32;;;;;;;10.90;6.45;;;;;;;;;;5083847;28;20053;-68
2022/04/26 03:58:59;;;;;;;10.00;6.88;;;;;;;;;;5072940;28;20060;-69
2022/04/26 04:01:25;;;;;;;14.55;7.30;;;;;;;;;;5089735;28;20054;-69
2022/04/26 04:03:51;;;;;;;14.23;7.53;;;;;;;;;;5092781;28;20140;-69
2022/04/26 04:06:18;;;;;;;12.88;7.47;;;;;;;;;;5085953;28;20060;-69
2022/04/26 04:08:44;;;;;;;18.05;8.15;;;;;;;;;;5092814;28;20064;-70
2022/04/26 04:11:10;;;;;;;11.13;7.32;;;;;;;;;;5081762;28;20053;-69
2022/04/26 04:13:36;;;;;;;13.20;7.85;;;;;;;;;;5086733;28;20057;-69
2022/04/26 04:16:03;;;;;;;18.63;9.00;;;;;;;;;;5071921;28;20063;-68
2022/04/26 04:21:14;;;;;;;13.37;8.73;;;;;;;;;;5072303;28;20053;-69
2022/04/26 04:23:41;;;;;;;14.32;8.68;;;;;;;;;;5071928;28;20761;-69
2022/04/26 04:26:10;;;;;;;13.48;8.82;;;;;;;;;;5071786;28;20049;-69
2022/04/26 04:28:36;;;;;;;14.32;8.75;;;;;;;;;;5071652;28;20049;-69
2022/04/26 04:31:03;;;;;;;13.95;8.85;;;;;;;;;;5072341;28;20067;-69
2022/04/26 04:33:29;;;;;;;14.68;9.02;;;;;;;;;;5083264;28;20484;-69
2022/04/26 04:35:55;;;;;;;16.80;9.05;;;;;;;;;;5091312;28;20101;-70
2022/04/26 04:38:21;;;;;;;16.83;9.18;;;;;;;;;;5074119;28;20059;-70
2022/04/26 04:40:48;;;;;;;14.70;8.93;;;;;;;;;;5071622;28;20057;-69
2022/04/26 04:43:14;;;;;;;14.80;9.05;;;;;;;;;;5078487;28;20606;-69
2022/04/26 04:45:40;;;;;;;15.60;9.10;;;;;;;;;;5073373;28;20052;-69
2022/04/26 04:48:07;;;;;;;16.33;8.55;;;;;;;;;;5075964;28;20041;-69
2022/04/26 04:50:33;;;;;;;16.70;9.18;;;;;;;;;;5074293;28;20144;-69
2022/04/26 04:53:00;;;;;;;11.18;8.80;;;;;;;;;;5088342;28;20057;-69
2022/04/26 04:55:26;;;;;;;17.83;8.98;;;;;;;;;;5078373;28;20053;-69
2022/04/26 04:57:53;;;;;;;15.93;8.25;;;;;;;;;;5090958;28;20059;-69
2022/04/26 05:00:19;;;;;;;17.63;8.32;;;;;;;;;;5086314;28;20143;-69
2022/04/26 05:02:45;;;;;;;13.60;8.50;;;;;;;;;;5083378;28;20061;-69
2022/04/26 05:05:12;;;;;;;13.40;7.85;;;;;;;;;;5092042;28;20049;-69
2022/04/26 05:07:39;;;;;;;9.82;7.43;;;;;;;;;;5090993;28;20059;-69
2022/04/26 05:10:06;;;;;;;14.32;8.65;;;;;;;;;;5088370;28;20053;-69
2022/04/26 05:12:32;;;;;;;16.88;9.50;;;;;;;;;;5072251;28;20045;-69
2022/04/26 05:14:59;;;;;;;19.17;8.07;;;;;;;;;;5089641;28;20061;-69
2022/04/26 05:17:28;;;;;;;18.33;8.43;;;;;;;;;;5091504;28;20053;-69
2022/04/26 05:19:55;;;;;;;17.70;7.57;;;;;;;;;;5074923;28;20049;-69
2022/04/26 05:22:22;;;;;;;15.07;7.68;;;;;;;;;;5081623;28;20330;-69
2022/04/26 05:24:54;;;;;;;14.98;7.78;;;;;;;;;;5084422;28;20053;-69
2022/04/26 05:27:20;;;;;;;9.77;8.02;;;;;;;;;;5081102;28;20049;-70
2022/04/26 05:29:47;;;;;;;14.07;7.25;;;;;;;;;;5095093;28;20057;-69
2022/04/26 05:32:13;;;;;;;11.18;7.00;;;;;;;;;;5086369;28;20045;-69
2022/04/26 05:34:39;;;;;;;9.38;6.60;;;;;;;;;;5076868;28;20056;-70
2022/04/26 05:37:06;;;;;;;12.48;7.30;;;;;;;;;;5078317;28;20114;-67
2022/04/26 05:39:32;;;;;;;14.48;6.38;;;;;;;;;;5079304;28;20063;-69
2022/04/26 05:41:59;;;;;;;11.05;6.85;;;;;;;;;;5090305;28;20156;-70
2022/04/26 05:44:25;;;;;;;11.63;6.53;;;;;;;;;;5079059;28;20508;-70
2022/04/26 05:46:51;;;;;;;12.50;6.50;;;;;;;;;;5089614;28;20052;-69
2022/04/26 05:49:18;;;;;;;12.38;6.50;;;;;;;;;;5090537;28;20052;-70
2022/04/26 05:51:44;;;;;;;12.60;6.72;;;;;;;;;;5078832;28;20508;-69
2022/04/26 05:54:10;;;;;;;12.23;6.57;;;;;;;;;;5084965;28;20056;-68
2022/04/26 05:56:37;;;;;;;10.90;6.00;;;;;;;;;;5081509;28;20059;-68
2022/04/26 05:59:05;;;;;;;11.85;6.60;;;;;;;;;;5085083;28;20052;-68
2022/04/26 06:01:31;;;;;;;12.80;6.30;;;;;;;;;;5083261;28;20107;-67
2022/04/26 06:03:58;;;;;;;11.77;6.22;;;;;;;;;;5084382;28;20053;-69
2022/04/26 06:06:25;;;;;;;9.82;6.40;;;;;;;;;;5089787;28;20056;-69
2022/04/26 06:08:52;;;;;;;11.32;5.75;;;;;;;;;;5080845;28;20057;-68
2022/04/26 06:11:19;;;;;;;11.82;5.18;;;;;;;;;;5071377;28;20072;-68
2022/04/26 06:13:45;;;;;;;8.77;6.30;;;;;;;;;;5071952;28;20060;-67
2022/04/26 06:16:11;;;;;;;11.38;5.15;;;;;;;;;;5071840;28;20060;-68
2022/04/26 06:18:38;;;;;;;12.32;5.72;;;;;;;;;;5076119;28;20511;-69
2022/04/26 06:21:04;;;;;;;13.43;6.57;;;;;;;;;;5073940;28;20057;-70
2022/04/26 06:23:30;;;;;;;11.10;5.60;;;;;;;;;;5087421;28;20100;-68
2022/04/26 06:25:58;;;;;;;18.88;6.03;;;;;;;;;;5073809;28;20064;-68
2022/04/26 06:28:26;;;;;;;9.93;5.97;;;;;;;;;;5081255;28;20053;-68
2022/04/26 06:30:52;;;;;;;13.13;6.10;;;;;;;;;;5092911;28;20044;-68
2022/04/26 06:33:18;;;;;;;10.45;5.40;;;;;;;;;;5077313;28;20075;-68
2022/04/26 06:35:50;;;;;;;11.00;5.65;;;;;;;;;;5074810;28;20088;-68
2022/04/26 06:38:16;;;;;;;13.85;5.85;;;;;;;;;;5074793;28;20823;-68
2022/04/26 06:40:42;;;;;;;7.88;4.65;;;;;;;;;;5075334;28;20052;-67
2022/04/26 06:43:11;;;;;;;11.65;5.80;;;;;;;;;;5072438;28;20055;-67
2022/04/26 06:45:38;;;;;;;7.03;5.05;;;;;;;;;;5074459;28;20059;-67
2022/04/26 06:48:08;;;;;;;14.00;5.60;;;;;;;;;;5076410;28;20056;-67
2022/04/26 06:50:35;;;;;;;21.38;6.03;;;;;;;;;;5091694;28;20138;-69
2022/04/26 06:53:01;;;;;;;11.50;4.75;;;;;;;;;;5088655;28;20056;-69
2022/04/26 06:55:27;;;;;;;6.65;4.55;;;;;;;;;;5074804;28;20059;-69
2022/04/26 06:57:53;;;;;;;14.00;5.47;;;;;;;;;;5071559;28;20060;-68
2022/04/26 07:00:20;;;;;;;11.48;5.05;;;;;;;;;;5084326;28;20085;-69
2022/04/26 07:02:46;;;;;;;7.82;4.80;;;;;;;;;;5073019;28;20514;-67
2022/04/26 07:05:14;;;;;;;11.27;4.47;;;;;;;;;;5072800;28;20080;-67
2022/04/26 07:07:40;;;;;;;18.50;5.93;;;;;;;;;;5072960;28;20139;-69
2022/04/26 07:10:07;;;;;;;12.50;5.13;;;;;;;;;;5073172;28;20049;-69
2022/04/26 07:12:34;;;;;;;10.07;5.90;;;;;;;;;;5073120;28;20053;-69
2022/04/26 07:15:00;;;;;;;13.13;5.63;;;;;;;;;;5076136;28;20102;-68
2022/04/26 07:17:26;;;;;;;11.77;4.90;;;;;;;;;;5092621;28;20127;-68
2022/04/26 07:19:53;;;;;;;10.38;4.90;;;;;;;;;;5083716;28;20053;-67
2022/04/26 07:22:26;;;;;;;9.75;4.30;;;;;;;;;;5089935;28;20061;-68
2022/04/26 07:24:53;;;;;;;10.75;5.00;;;;;;;;;;5089339;28;20073;-67
2022/04/26 07:27:20;;;;;;;10.10;5.35;;;;;;;;;;5076693;28;20052;-68
2022/04/26 07:29:50;;;;;;;10.20;4.90;;;;;;;;;;5085585;28;20191;-68
2022/04/26 07:32:17;;;;;;;11.23;5.38;;;;;;;;;;5072435;28;20064;-69
2022/04/26 07:34:45;;;;;;;10.25;4.60;;;;;;;;;;5073130;28;20062;-67
2022/04/26 07:37:11;;;;;;;11.13;4.90;;;;;;;;;;5075124;28;20490;-70
2022/04/26 07:39:37;;;;;;;9.73;5.13;;;;;;;;;;5074834;28;20542;-70
2022/04/26 07:42:05;;;;;;;8.73;4.28;;;;;;;;;;5075113;28;20052;-68
2022/04/26 07:44:31;;;;;;;12.57;5.38;;;;;;;;;;5088279;28;20420;-69
2022/04/26 07:46:58;;;;;;;12.82;5.03;;;;;;;;;;5084847;28;20409;-68
2022/04/26 07:49:26;;;;;;;10.60;4.50;;;;;;;;;;5071423;28;20045;-67
2022/04/26 07:51:53;;;;;;;14.00;5.63;;;;;;;;;;5078393;28;20052;-68
2022/04/26 07:54:20;;;;;;;9.27;5.32;;;;;;;;;;5070999;28;20055;-68
2022/04/26 07:56:47;;;;;;;12.98;5.10;;;;;;;;;;5070740;28;20049;-68
2022/04/26 07:59:14;;;;;;;12.90;4.72;;;;;;;;;;5074102;28;20056;-68
2022/04/26 08:01:41;;;;;;;12.38;4.90;;;;;;;;;;5069176;28;20106;-67
2022/04/26 08:04:07;;;;;;;13.00;6.05;;;;;;;;;;5068705;28;20130;-68
2022/04/26 08:06:36;;;;;;;8.18;5.10;;;;;;;;;;5069419;28;20097;-68
2022/04/26 08:09:03;;;;;;;13.90;4.85;;;;;;;;;;5071072;28;20364;-67
2022/04/26 08:11:29;;;;;;;13.88;5.00;;;;;;;;;;5067851;28;20057;-67
2022/04/26 08:13:56;;;;;;;7.20;4.22;;;;;;;;;;5070059;28;20065;-67
2022/04/26 08:16:22;;;;;;;9.40;5.10;;;;;;;;;;5070329;28;20053;-67
2022/04/26 08:18:49;;;;;;;10.48;5.35;;;;;;;;;;5070455;28;20081;-67
2022/04/26 08:21:16;;;;;;;8.88;4.60;;;;;;;;;;5074968;28;20106;-67
2022/04/26 08:29:14;;;;;;;10.70;4.93;;;;;;;;;;5067684;28;20706;-68
2022/04/26 08:31:41;;;;;;;10.95;5.20;;;;;;;;;;5069239;28;20055;-68
2022/04/26 08:34:08;;;;;;;9.15;5.55;;;;;;;;;;5069452;28;20128;-69
2022/04/26 08:36:35;;;;;;;8.63;4.75;;;;;;;;;;5086340;28;20053;-68
2022/04/26 08:39:02;;;;;;;10.38;5.50;;;;;;;;;;5069191;28;20403;-69
2022/04/26 08:41:29;;;;;;;9.55;5.05;;;;;;;;;;5067257;28;20500;-69
2022/04/26 08:43:55;;;;;;;10.30;5.82;;;;;;;;;;5070891;28;20522;-69
2022/04/26 08:46:21;;;;;;;9.95;4.78;;;;;;;;;;5078770;28;20052;-69
2022/04/26 08:51:33;;;;;;;11.13;4.30;;;;;;;;;;5069360;28;21196;-69
2022/04/26 08:53:59;;;;;;;8.27;4.18;;;;;;;;;;5074389;28;20053;-70
2022/04/26 08:56:26;;;;;;;9.07;5.03;;;;;;;;;;5085084;28;20084;-68
2022/04/26 08:58:52;;;;;;;8.18;4.57;;;;;;;;;;5078079;28;20053;-69
2022/04/26 09:01:19;;;;;;;10.45;4.38;;;;;;;;;;5079413;28;20057;-70
2022/04/26 09:03:54;;;;;;;9.88;4.28;;;;;;;;;;5093964;28;20052;-67
2022/04/26 09:06:30;;;;;;;6.70;4.50;;;;;;;;;;5082238;28;20052;-69
2022/04/26 09:09:08;;;;;;;12.38;5.32;;;;;;;;;;5086822;28;20057;-69
2022/04/26 09:11:35;;;;;;;8.40;4.97;;;;;;;;;;5100210;28;20048;-70
2022/04/26 09:14:03;;;;;;;11.30;5.07;;;;;;;;;;5090242;28;20529;-70
2022/04/26 09:16:29;;;;;;;10.60;5.30;;;;;;;;;;5077704;28;20045;-68
2022/04/26 09:18:57;;;;;;;7.80;4.57;;;;;;;;;;5073429;28;20192;-68
2022/04/26 09:21:27;;;;;;;9.43;5.55;;;;;;;;;;5073102;28;20053;-67
2022/04/26 09:23:57;;;;;;;9.27;4.78;;;;;;;;;;5073194;28;20049;-68
2022/04/26 09:26:25;;;;;;;12.27;5.38;;;;;;;;;;5073573;28;20056;-69
2022/04/26 09:28:51;;;;;;;8.20;4.45;;;;;;;;;;5074275;28;20153;-67
2022/04/26 09:31:31;;;;;;;4.78;3.63;;;;;;;;;;5092940;28;20049;-66
2022/04/26 09:33:59;;;;;;;13.40;4.50;;;;;;;;;;5079990;28;20053;-67
2022/04/26 09:36:28;;;;;;;6.40;4.07;;;;;;;;;;5080603;28;20091;-69
2022/04/26 09:38:59;;;;;;;9.45;4.00;;;;;;;;;;5079231;28;20388;-67
2022/04/26 09:41:27;;;;;;;7.93;3.55;;;;;;;;;;5085063;28;20075;-67
2022/04/26 09:44:01;;;;;;;9.60;3.92;;;;;;;;;;5074745;28;20060;-66
2022/04/26 09:46:39;;;;;;;5.88;3.50;;;;;;;;;;5073234;28;20056;-66
2022/04/26 09:49:11;;;;;;;6.88;3.60;;;;;;;;;;5086445;28;20063;-66
2022/04/26 09:51:37;;;;;;;6.45;3.63;;;;;;;;;;5081987;28;20585;-66
2022/04/26 09:54:04;;;;;;;14.63;3.95;;;;;;;;;;5093839;28;20045;-66
2022/04/26 09:56:31;;;;;;;8.93;3.58;;;;;;;;;;5070856;28;20077;-66
2022/04/26 09:58:58;;;;;;;4.72;3.10;;;;;;;;;;5082064;28;20052;-64
2022/04/26 10:01:35;;;;;;;8.63;3.85;;;;;;;;;;5090771;28;20060;-65
2022/04/26 10:04:02;;;;;;;5.45;2.50;;;;;;;;;;5073565;28;20053;-65
2022/04/26 10:06:49;;;;;;;5.13;3.05;;;;;;;;;;5071232;28;20538;-64
2022/04/26 10:09:15;;;;;;;5.72;2.67;;;;;;;;;;5073332;28;20060;-65
2022/04/26 10:11:42;;;;;;;4.50;3.15;;;;;;;;;;5072723;28;22170;-64
2022/04/26 10:14:09;;;;;;;5.90;2.65;;;;;;;;;;5069159;28;20057;-66
2022/04/26 10:16:36;;;;;;;4.53;3.10;;;;;;;;;;5072834;28;20055;-68
2022/04/26 10:19:03;;;;;;;7.10;3.25;;;;;;;;;;5073585;28;20184;-69
2022/04/26 10:21:29;;;;;;;5.25;3.30;;;;;;;;;;5074130;28;20545;-67
2022/04/26 10:24:03;;;;;;;10.25;3.40;;;;;;;;;;5074222;28;20053;-67
2022/04/26 10:26:31;;;;;;;8.05;3.42;;;;;;;;;;5079313;28;20056;-68
2022/04/26 10:28:58;;;;;;;4.85;2.90;;;;;;;;;;5078189;28;20060;-67
2022/04/26 10:31:37;;;;;;;5.05;2.88;;;;;;;;;;5096122;28;20052;-67
2022/04/26 10:34:13;;;;;;;5.32;2.65;;;;;;;;;;5080205;28;20048;-69
2022/04/26 10:36:39;;;;;;;4.55;2.83;;;;;;;;;;5072322;28;20056;-67
2022/04/26 10:39:05;;;;;;;4.13;3.30;;;;;;;;;;5082360;28;20049;-66
2022/04/26 10:41:34;;;;;;;4.75;2.85;;;;;;;;;;5074084;28;20056;-65
2022/04/26 10:44:26;;;;;;;6.72;3.03;;;;;;;;;;5081190;28;20053;-67
2022/04/26 10:46:53;;;;;;;4.88;2.95;;;;;;;;;;5091130;28;20057;-65
2022/04/26 10:49:23;;;;;;;4.85;2.92;;;;;;;;;;5092016;28;20048;-66
2022/04/26 10:51:55;;;;;;;7.05;3.25;;;;;;;;;;5071974;28;20048;-67
2022/04/26 10:54:40;;;;;;;4.93;3.45;;;;;;;;;;5068456;28;20052;-68
2022/04/26 10:57:06;;;;;;;7.85;3.08;;;;;;;;;;5073504;28;20168;-66
2022/04/26 10:59:32;;;;;;;5.95;2.65;;;;;;;;;;5071183;28;22195;-66
2022/04/26 11:02:00;;;;;;;7.00;3.00;;;;;;;;;;5070633;28;20179;-66
2022/04/26 11:04:27;;;;;;;5.28;2.70;;;;;;;;;;5078699;28;20500;-67
2022/04/26 11:06:53;;;;;;;6.07;2.85;;;;;;;;;;5072050;28;20136;-67
2022/04/26 11:09:20;;;;;;;5.18;2.40;;;;;;;;;;5072771;28;20053;-66
2022/04/26 11:11:50;;;;;;;4.53;2.72;;;;;;;;;;5080305;28;20516;-65
2022/04/26 11:14:21;;;;;;;3.13;2.50;;;;;;;;;;5083172;28;20052;-65
2022/04/26 11:16:58;;;;;;;4.15;2.78;;;;;;;;;;5090650;28;20522;-66
2022/04/26 11:19:25;;;;;;;8.60;3.03;;;;;;;;;;5072205;28;20650;-67
2022/04/26 11:21:53;;;;;;;3.13;2.20;;;;;;;;;;5073333;28;20420;-67
2022/04/26 11:29:53;;;;;;;4.80;2.17;;;;;;;;;;5072953;28;20053;-68
2022/04/26 11:32:30;;;;;;;4.95;2.75;;;;;;;;;;5080796;28;20519;-70
2022/04/26 11:34:57;;;;;;;5.32;2.65;;;;;;;;;;5089212;28;20053;-67
2022/04/26 11:37:23;;;;;;;3.38;2.20;;;;;;;;;;5088621;28;20075;-67
2022/04/26 11:39:50;;;;;;;3.45;2.10;;;;;;;;;;5077852;28;20496;-68
2022/04/26 11:42:16;;;;;;;3.15;2.35;;;;;;;;;;5072916;28;20048;-67
2022/04/26 11:44:58;;;;;;;2.40;1.85;;;;;;;;;;5076249;28;20638;-69
2022/04/26 11:47:41;;;;;;;3.45;2.25;;;;;;;;;;5079498;28;20045;-68
2022/04/26 11:50:10;;;;;;;7.65;2.10;;;;;;;;;;5077783;28;22041;-69
2022/04/26 11:52:36;;;;;;;4.25;2.20;;;;;;;;;;5077585;28;20057;-67
2022/04/26 11:55:02;;;;;;;4.47;2.65;;;;;;;;;;5073530;28;20048;-69
2022/04/26 11:57:29;;;;;;;2.50;2.03;;;;;;;;;;5075895;28;20232;-67
2022/04/26 11:59:56;;;;;;;4.15;2.10;;;;;;;;;;5069593;28;20052;-68
2022/04/26 12:02:24;;;;;;;4.63;2.50;;;;;;;;;;5071123;28;20053;-68
2022/04/26 12:04:51;;;;;;;3.83;2.60;;;;;;;;;;5069578;28;20056;-68
2022/04/26 12:07:17;;;;;;;4.82;2.33;;;;;;;;;;5073783;28;20503;-69
2022/04/26 12:09:44;;;;;;;3.25;2.58;;;;;;;;;;5075534;28;20063;-68
2022/04/26 12:12:13;;;;;;;4.22;2.22;;;;;;;;;;5081900;28;20438;-67
2022/04/26 12:14:41;;;;;;;4.63;2.42;;;;;;;;;;5070112;28;20056;-69
2022/04/26 12:17:29;;;;;;;3.83;2.30;;;;;;;;;;5074219;28;20509;-68
2022/04/26 12:20:08;;;;;;;2.60;2.40;;;;;;;;;;5072217;28;20060;-68
2022/04/26 12:22:37;;;;;;;3.28;2.45;;;;;;;;;;5070807;28;20148;-70
2022/04/26 12:25:14;;;;;;;1.92;1.70;;;;;;;;;;5071376;28;20049;-69
2022/04/26 12:27:41;;;;;;;4.30;1.90;;;;;;;;;;5073310;28;20080;-69
2022/04/26 12:30:09;;;;;;;2.53;2.03;;;;;;;;;;5082341;28;20565;-67
2022/04/26 12:32:40;;;;;;;5.65;2.58;;;;;;;;;;5096793;28;20102;-68
2022/04/26 12:35:08;;;;;;;6.93;2.30;;;;;;;;;;5082571;28;20048;-67
2022/04/26 12:37:35;;;;;;;3.55;2.47;;;;;;;;;;5096229;28;20053;-67
2022/04/26 12:40:09;;;;;;;3.05;2.00;;;;;;;;;;5092387;28;20050;-66
2022/04/26 12:42:36;;;;;;;2.30;1.70;;;;;;;;;;5074679;28;20429;-67
2022/04/26 12:45:04;;;;;;;1.52;1.42;;;;;;;;;;5074152;28;20056;-67
2022/04/26 12:50:33;;;;;;;5.70;2.15;;;;;;;;;;5074332;28;20060;-67
2022/04/26 12:53:02;;;;;;;3.53;2.05;;;;;;;;;;5076250;28;20052;-67
2022/04/26 12:55:28;;;;;;;4.45;2.30;;;;;;;;;;5073604;28;20493;-68
2022/04/26 12:57:55;;;;;;;2.35;2.10;;;;;;;;;;5072685;28;20057;-69
2022/04/26 13:00:24;;;;;;;8.43;2.38;;;;;;;;;;5072170;28;20049;-70
2022/04/26 13:02:51;;;;;;;3.20;2.00;;;;;;;;;;5072182;28;20059;-68
2022/04/26 13:05:18;;;;;;;3.13;2.38;;;;;;;;;;5074402;28;20060;-67
2022/04/26 13:07:47;;;;;;;3.15;2.22;;;;;;;;;;5075019;28;20052;-69
2022/04/26 13:10:14;;;;;;;4.20;2.67;;;;;;;;;;5078483;28;20523;-69
2022/04/26 13:12:41;;;;;;;4.50;1.90;;;;;;;;;;5088717;28;20052;-69
2022/04/26 13:15:08;;;;;;;3.53;2.20;;;;;;;;;;5070826;28;20108;-68
2022/04/26 13:17:35;;;;;;;4.85;2.45;;;;;;;;;;5073982;28;20052;-69
2022/04/26 13:20:01;;;;;;;3.03;1.67;;;;;;;;;;5077483;28;20087;-67
2022/04/26 13:22:29;;;;;;;4.75;3.10;;;;;;;;;;5086301;28;20049;-68
2022/04/26 13:24:55;;;;;;;3.92;2.08;;;;;;;;;;5090034;27;20178;-67
2022/04/26 13:27:22;;;;;;;4.18;2.50;;;;;;;;;;5093821;28;20131;-67
2022/04/26 13:29:50;;;;;;;2.38;1.70;;;;;;;;;;5075287;28;20057;-67
2022/04/26 13:32:17;;;;;;;5.82;2.20;;;;;;;;;;5075073;28;20053;-66
2022/04/26 13:34:44;;;;;;;4.82;2.70;;;;;;;;;;5081127;28;20049;-66
2022/04/26 13:37:11;;;;;;;5.03;2.60;;;;;;;;;;5075509;28;20467;-68
2022/04/26 13:39:43;;;;;;;4.18;2.10;;;;;;;;;;5084006;28;20056;-69
2022/04/26 13:42:11;;;;;;;4.65;2.55;;;;;;;;;;5083990;28;20492;-68
2022/04/26 13:44:38;;;;;;;4.35;2.83;;;;;;;;;;5075032;28;20057;-69
2022/04/26 13:47:06;;;;;;;3.63;2.22;;;;;;;;;;5077152;28;20131;-68
2022/04/26 13:49:36;;;;;;;3.78;2.17;;;;;;;;;;5074792;28;20052;-71
2022/04/26 13:52:03;;;;;;;4.95;2.17;;;;;;;;;;5073585;28;20476;-69
2022/04/26 13:54:29;;;;;;;3.25;1.90;;;;;;;;;;5072734;28;20053;-69
2022/04/26 13:56:56;;;;;;;2.63;1.88;;;;;;;;;;5076065;28;20056;-69
2022/04/26 13:59:23;;;;;;;2.67;1.70;;;;;;;;;;5075453;28;20056;-70
2022/04/26 14:01:50;;;;;;;2.90;1.42;;;;;;;;;;5073842;28;20048;-68
2022/04/26 14:04:17;;;;;;;2.20;1.60;;;;;;;;;;5072071;28;20053;-66
2022/04/26 14:06:43;;;;;;;2.13;1.73;;;;;;;;;;5073511;28;20508;-68
2022/04/26 14:09:10;;;;;;;4.18;1.80;;;;;;;;;;5072585;28;20496;-68
2022/04/26 14:11:36;;;;;;;3.55;2.22;;;;;;;;;;5072756;28;20504;-68
2022/04/26 14:22:32;;;;;;;3.88;1.92;;;;;;;;;;5073914;28;20053;-68
2022/04/26 14:25:05;;;;;;;7.40;1.80;;;;;;;;;;5074800;28;20515;-68
2022/04/26 14:27:31;;;;;;;2.05;1.55;;;;;;;;;;5072325;28;20057;-70
2022/04/26 14:29:58;;;;;;;3.97;1.90;;;;;;;;;;5075255;28;20148;-68
2022/04/26 14:32:24;;;;;;;2.60;2.10;;;;;;;;;;5074564;28;20409;-69
2022/04/26 14:34:50;;;;;;;3.60;1.90;;;;;;;;;;5076028;28;20060;-69
2022/04/26 14:37:17;;;;;;;8.15;1.80;;;;;;;;;;5077579;28;20053;-69
2022/04/26 14:39:43;;;;;;;3.22;2.10;;;;;;;;;;5074953;28;20060;-70
2022/04/26 14:42:10;;;;;;;3.95;1.90;;;;;;;;;;5078641;28;20519;-69
2022/04/26 14:44:36;;;;;;;2.58;1.88;;;;;;;;;;5085829;28;20067;-70
2022/04/26 14:47:03;;;;;;;2.10;1.90;;;;;;;;;;5075636;28;20049;-67
2022/04/26 14:49:30;;;;;;;4.45;1.90;;;;;;;;;;5072197;28;20064;-71
2022/04/26 14:51:57;;;;;;;3.70;2.05;;;;;;;;;;5074764;28;20097;-69
2022/04/26 14:54:43;;;;;;;17.48;2.40;;;;;;;;;;5076062;28;20057;-69
2022/04/26 14:57:10;;;;;;;4.13;2.20;;;;;;;;;;5075657;28;20455;-68
2022/04/26 14:59:45;;;;;;;7.65;2.17;;;;;;;;;;5073613;28;22050;-68
2022/04/26 15:02:13;;;;;;;2.15;1.95;;;;;;;;;;5071606;28;20056;-69
2022/04/26 15:04:40;;;;;;;5.05;2.15;;;;;;;;;;5074647;28;20060;-70
2022/04/26 15:07:06;;;;;;;3.67;2.60;;;;;;;;;;5075125;28;20060;-71
2022/04/26 15:09:51;;;;;;;2.70;2.20;;;;;;;;;;5084168;28;20057;-72
2022/04/26 15:17:48;;;;;;;5.43;3.10;;;;;;;;;;5075613;28;20397;-69
2022/04/26 15:20:17;;;;;;;7.47;2.95;;;;;;;;;;5081291;28;20084;-69
2022/04/26 15:22:44;;;;;;;5.03;2.92;;;;;;;;;;5081615;28;20048;-69
2022/04/26 15:25:10;;;;;;;4.18;2.75;;;;;;;;;;5091633;28;20048;-68
2022/04/26 15:27:38;;;;;;;5.75;2.13;;;;;;;;;;5093149;28;20048;-69
2022/04/26 15:30:06;;;;;;;5.68;2.58;;;;;;;;;;5086088;28;20052;-70
2022/04/26 15:32:32;;;;;;;4.80;3.03;;;;;;;;;;5088354;28;20055;-69
2022/04/26 15:34:58;;;;;;;3.42;2.88;;;;;;;;;;5080456;28;20056;-68
2022/04/26 15:37:29;;;;;;;5.85;2.40;;;;;;;;;;5093218;28;20063;-70
2022/04/26 15:39:55;;;;;;;6.55;3.10;;;;;;;;;;5092851;28;20053;-70
2022/04/26 15:42:22;;;;;;;4.43;2.90;;;;;;;;;;5091174;28;20480;-70
2022/04/26 15:44:49;;;;;;;3.58;2.67;;;;;;;;;;5092299;28;20049;-70
2022/04/26 15:47:15;;;;;;;5.38;2.55;;;;;;;;;;5092759;28;20070;-71
2022/04/26 15:49:41;;;;;;;5.50;2.67;;;;;;;;;;5086946;28;20064;-70
2022/04/26 15:52:07;;;;;;;6.80;3.10;;;;;;;;;;5081659;28;20054;-69
2022/04/26 15:54:35;;;;;;;3.72;2.50;;;;;;;;;;5080125;28;20052;-70
2022/04/26 15:57:03;;;;;;;2.97;2.22;;;;;;;;;;5077375;28;20529;-70
2022/04/26 15:59:29;;;;;;;8.68;2.95;;;;;;;;;;5092827;28;20052;-70
2022/04/26 16:01:56;;;;;;;7.47;3.05;;;;;;;;;;5089966;28;20048;-70
2022/04/26 16:04:22;;;;;;;4.15;2.40;;;;;;;;;;5084556;28;20235;-70
2022/04/26 16:06:49;;;;;;;6.90;3.33;;;;;;;;;;5083441;28;20055;-70
2022/04/26 16:20:32;;;;;;;3.50;1.92;;;;;;;;;;5087821;28;20055;-70
2022/04/26 16:23:01;;;;;;;3.72;2.00;;;;;;;;;;5081693;28;20136;-70
2022/04/26 16:25:27;;;;;;;7.15;2.55;;;;;;;;;;5083294;28;20062;-69
2022/04/26 16:27:54;;;;;;;3.83;2.50;;;;;;;;;;5092466;28;20147;-70
2022/04/26 16:30:25;;;;;;;2.92;2.47;;;;;;;;;;5092124;28;20523;-69
2022/04/26 16:32:51;;;;;;;6.78;2.70;;;;;;;;;;5083764;28;20076;-69
2022/04/26 16:35:17;;;;;;;3.63;2.47;;;;;;;;;;5082854;28;20056;-70
2022/04/26 16:37:44;;;;;;;4.75;2.40;;;;;;;;;;5086696;28;20057;-69
2022/04/26 16:40:11;;;;;;;8.32;3.65;;;;;;;;;;5090209;28;20463;-69
2022/04/26 16:42:38;;;;;;;7.60;3.08;;;;;;;;;;5087819;28;20147;-70
2022/04/26 16:45:08;;;;;;;7.63;2.72;;;;;;;;;;5086436;28;20161;-69
2022/04/26 16:47:35;;;;;;;3.65;2.38;;;;;;;;;;5086101;28;20052;-69
2022/04/26 16:50:01;;;;;;;4.65;2.47;;;;;;;;;;5072672;28;20080;-70
2022/04/26 16:52:28;;;;;;;5.90;2.70;;;;;;;;;;5090983;28;20052;-69
2022/04/26 16:54:54;;;;;;;3.78;2.60;;;;;;;;;;5091199;28;20053;-69
2022/04/26 16:57:21;;;;;;;6.05;3.15;;;;;;;;;;5091253;28;20048;-69
2022/04/26 16:59:47;;;;;;;3.58;2.95;;;;;;;;;;5081153;28;20053;-69
2022/04/26 17:02:17;;;;;;;3.88;3.08;;;;;;;;;;5075245;28;20057;-69
2022/04/26 17:04:44;;;;;;;4.80;2.78;;;;;;;;;;5078077;28;20906;-69
2022/04/26 17:07:10;;;;;;;5.60;2.58;;;;;;;;;;5082393;28;20427;-70
2022/04/26 17:09:37;;;;;;;5.20;2.75;;;;;;;;;;5089754;28;20053;-70
2022/04/26 17:12:03;;;;;;;6.10;2.88;;;;;;;;;;5091693;28;20059;-70
2022/04/26 17:14:31;;;;;;;4.47;2.65;;;;;;;;;;5079702;28;20057;-70
2022/04/26 17:16:57;;;;;;;4.47;2.83;;;;;;;;;;5085999;28;20528;-70
2022/04/26 17:19:24;;;;;;;8.05;3.28;;;;;;;;;;5095049;28;20064;-69
2022/04/26 17:21:51;;;;;;;5.45;3.25;;;;;;;;;;5093925;28;20052;-69
2022/04/26 17:27:04;;;;;;;6.45;3.40;;;;;;;;;;5082324;28;20053;-69
2022/04/26 17:29:30;;;;;;;10.45;3.67;;;;;;;;;;5077805;28;20087;-70
2022/04/26 17:31:57;;;;;;;7.88;3.20;;;;;;;;;;5077657;28;20057;-69
2022/04/26 17:34:23;;;;;;;5.75;3.42;;;;;;;;;;5082133;28;20063;-70
2022/04/26 17:36:49;;;;;;;6.13;3.05;;;;;;;;;;5082363;28;20045;-70
2022/04/26 17:39:35;;;;;;;4.43;3.08;;;;;;;;;;5090088;28;20084;-70
2022/04/26 17:42:01;;;;;;;4.95;3.20;;;;;;;;;;5074576;28;20143;-70
2022/04/26 17:44:27;;;;;;;7.95;3.80;;;;;;;;;;5083301;28;20521;-71
2022/04/26 17:46:53;;;;;;;8.68;3.17;;;;;;;;;;5074066;28;20055;-70
2022/04/26 17:49:40;;;;;;;5.05;3.42;;;;;;;;;;5076165;28;20049;-70
2022/04/26 17:52:06;;;;;;;7.00;3.38;;;;;;;;;;5086770;28;20052;-71
2022/04/26 17:57:18;;;;;;;8.15;3.47;;;;;;;;;;5083339;28;20055;-70
2022/04/26 17:59:44;;;;;;;4.15;3.20;;;;;;;;;;5094341;28;20097;-70
2022/04/26 18:02:11;;;;;;;4.82;2.78;;;;;;;;;;5090687;28;20064;-70
2022/04/26 18:04:38;;;;;;;7.15;3.33;;;;;;;;;;5078420;28;20049;-69
2022/04/26 18:07:05;;;;;;;3.60;2.90;;;;;;;;;;5076321;28;20061;-70
2022/04/26 18:09:33;;;;;;;4.85;2.90;;;;;;;;;;5079240;28;20048;-70
2022/04/26 18:11:59;;;;;;;8.45;3.17;;;;;;;;;;5077260;28;20060;-70
2022/04/26 18:14:26;;;;;;;6.45;3.00;;;;;;;;;;5074733;28;20393;-70
2022/04/26 18:16:52;;;;;;;7.22;3.30;;;;;;;;;;5082394;28;20056;-70
2022/04/26 18:19:19;;;;;;;7.80;3.05;;;;;;;;;;5093795;28;20108;-69
2022/04/26 18:21:45;;;;;;;4.32;3.17;;;;;;;;;;5080433;28;20049;-69
2022/04/26 18:24:11;;;;;;;7.53;3.17;;;;;;;;;;5079629;28;20595;-69
2022/04/26 18:26:40;;;;;;;9.75;3.67;;;;;;;;;;5084413;28;20053;-70
2022/04/26 18:29:08;;;;;;;8.13;3.78;;;;;;;;;;5089472;28;20472;-70
2022/04/26 18:31:36;;;;;;;4.32;3.10;;;;;;;;;;5079391;28;20048;-70
2022/04/26 18:34:03;;;;;;;6.25;3.30;;;;;;;;;;5091824;28;20055;-70
2022/04/26 18:36:30;;;;;;;7.38;3.60;;;;;;;;;;5083208;28;20060;-69
2022/04/26 18:38:57;;;;;;;7.05;3.05;;;;;;;;;;5077974;28;20147;-70
2022/04/26 18:41:25;;;;;;;6.90;3.35;;;;;;;;;;5076273;28;20057;-70
2022/04/26 18:43:55;;;;;;;3.88;2.80;;;;;;;;;;5090631;28;20502;-70
2022/04/26 18:46:22;;;;;;;5.57;3.00;;;;;;;;;;5088707;28;20142;-70
2022/04/26 18:48:49;;;;;;;4.20;3.22;;;;;;;;;;5080170;28;20188;-70
2022/04/26 18:51:15;;;;;;;6.97;2.75;;;;;;;;;;5090683;28;20075;-70
2022/04/26 18:53:41;;;;;;;6.40;2.80;;;;;;;;;;5092307;28;20467;-70
2022/04/26 18:56:08;;;;;;;10.85;3.75;;;;;;;;;;5087551;28;20044;-70
2022/04/26 18:58:35;;;;;;;7.18;3.13;;;;;;;;;;5083200;28;20158;-70
2022/04/26 19:01:01;;;;;;;4.80;3.15;;;;;;;;;;5081149;28;20052;-70
2022/04/26 19:03:28;;;;;;;5.15;3.13;;;;;;;;;;5079084;28;20114;-70
2022/04/26 19:06:02;;;;;;;9.38;3.40;;;;;;;;;;5085261;28;20097;-69
2022/04/26 19:08:29;;;;;;;7.43;3.80;;;;;;;;;;5089755;28;20523;-70